Time;durP1;ratioP1;P1;durP2;ratioP2;P2;SDS_P1;SDS_P2;PMS_P1;PMS_P2;Temp;Humidity;BMP_temperature;BMP_pressure;BME280_temperature;BME280_humidity;BME280_pressure;Samples;Min_cycle;Max_cycle;Signal;HPM_P1;HPM_P2
2023/10/01 00:00:36;;;;;;;4.00;3.45;;;14.70;99.90;;;;;;5064604;28;20204;-66
2023/10/01 00:03:05;;;;;;;4.68;3.40;;;14.80;99.90;;;;;;5080466;28;20276;-66
2023/10/01 00:05:33;;;;;;;5.55;3.83;;;14.70;99.90;;;;;;5081554;28;20261;-66
2023/10/01 00:07:59;;;;;;;3.97;3.08;;;14.70;99.90;;;;;;5080002;28;20204;-66
2023/10/01 00:10:28;;;;;;;4.38;3.38;;;14.70;99.90;;;;;;5074946;28;20177;-65
2023/10/01 00:12:54;;;;;;;3.92;3.10;;;14.70;99.90;;;;;;5081435;28;20320;-65
2023/10/01 00:15:24;;;;;;;3.92;3.13;;;14.60;99.90;;;;;;5062638;28;20347;-66
2023/10/01 00:17:50;;;;;;;5.47;3.80;;;14.60;99.90;;;;;;5082216;28;20204;-65
2023/10/01 00:20:20;;;;;;;4.50;3.47;;;14.60;99.90;;;;;;5081822;28;20195;-66
2023/10/01 00:22:50;;;;;;;4.22;3.22;;;14.60;99.90;;;;;;5065581;28;20255;-66
2023/10/01 00:25:18;;;;;;;4.68;3.38;;;14.60;99.90;;;;;;5080657;28;20258;-66
2023/10/01 00:27:45;;;;;;;4.47;3.20;;;14.60;99.90;;;;;;5079267;28;20240;-67
2023/10/01 00:30:14;;;;;;;5.95;3.38;;;14.60;99.90;;;;;;5083812;28;20172;-66
2023/10/01 00:32:40;;;;;;;5.20;3.22;;;14.60;99.90;;;;;;5083038;28;20200;-66
2023/10/01 00:35:07;;;;;;;4.93;3.38;;;14.50;99.90;;;;;;5080619;28;20296;-66
2023/10/01 00:37:35;;;;;;;3.72;2.97;;;14.50;99.90;;;;;;5076839;28;20266;-65
2023/10/01 00:40:05;;;;;;;3.95;3.33;;;14.50;99.90;;;;;;5079757;28;20180;-66
2023/10/01 00:42:33;;;;;;;5.20;3.47;;;14.50;99.90;;;;;;5069527;28;20172;-65
2023/10/01 00:44:58;;;;;;;10.10;3.30;;;14.50;99.90;;;;;;5081642;28;20297;-67
2023/10/01 00:47:28;;;;;;;4.30;2.97;;;14.50;99.90;;;;;;5079820;28;20219;-66
2023/10/01 00:49:57;;;;;;;4.70;3.10;;;14.40;99.90;;;;;;5077730;28;20234;-65
2023/10/01 00:52:23;;;;;;;5.30;2.90;;;14.40;99.90;;;;;;5081259;28;20509;-66
2023/10/01 00:54:54;;;;;;;4.60;3.22;;;14.30;99.90;;;;;;5082770;28;20245;-66
2023/10/01 00:57:22;;;;;;;4.28;3.00;;;14.40;99.90;;;;;;5080629;28;20215;-66
2023/10/01 00:59:51;;;;;;;4.25;3.38;;;14.40;99.90;;;;;;5073322;28;20189;-65
2023/10/01 01:02:17;;;;;;;4.88;3.20;;;14.40;99.90;;;;;;5063168;28;20177;-65
2023/10/01 01:05:05;;;;;;;5.15;3.47;;;14.30;99.90;;;;;;5065965;28;20182;-66
2023/10/01 01:07:36;;;;;;;4.78;3.30;;;14.30;99.90;;;;;;5079813;28;20394;-67
2023/10/01 01:10:05;;;;;;;5.28;3.20;;;14.30;99.90;;;;;;5080149;28;20168;-66
2023/10/01 01:12:32;;;;;;;4.57;2.88;;;14.20;99.90;;;;;;5077419;28;20205;-66
2023/10/01 01:14:58;;;;;;;4.47;3.42;;;14.30;99.90;;;;;;5081052;28;20197;-67
2023/10/01 01:17:24;;;;;;;4.28;3.35;;;14.20;99.90;;;;;;5063756;28;20271;-66
2023/10/01 01:19:56;;;;;;;4.50;3.08;;;14.20;99.90;;;;;;5079795;28;20196;-67
2023/10/01 01:22:28;;;;;;;5.30;3.10;;;14.10;99.90;;;;;;5081285;28;20180;-67
2023/10/01 01:24:57;;;;;;;4.65;3.38;;;14.10;99.90;;;;;;5078685;28;20191;-66
2023/10/01 01:27:30;;;;;;;5.05;3.30;;;14.20;99.90;;;;;;5078277;28;20176;-67
2023/10/01 01:29:57;;;;;;;4.82;3.45;;;14.10;99.90;;;;;;5078461;28;20271;-66
2023/10/01 01:32:24;;;;;;;3.90;3.17;;;14.10;99.90;;;;;;5075355;28;20260;-66
2023/10/01 01:34:52;;;;;;;5.30;3.40;;;14.10;99.90;;;;;;5082863;28;20180;-66
2023/10/01 01:40:13;;;;;;;4.38;3.28;;;14.10;99.90;;;;;;5068328;28;20273;-66
2023/10/01 01:42:39;;;;;;;6.10;3.70;;;14.10;99.90;;;;;;5082303;28;20183;-66
2023/10/01 01:45:19;;;;;;;4.70;3.50;;;14.10;99.90;;;;;;5076986;28;20177;-66
2023/10/01 01:47:45;;;;;;;4.40;3.40;;;14.10;99.90;;;;;;5084297;28;20201;-66
2023/10/01 01:50:31;;;;;;;4.38;3.35;;;14.10;99.90;;;;;;5083126;28;20197;-67
2023/10/01 01:52:57;;;;;;;6.18;3.35;;;14.10;99.90;;;;;;5082846;28;20180;-66
2023/10/01 01:55:27;;;;;;;5.57;3.75;;;14.00;99.90;;;;;;5083272;28;20174;-66
2023/10/01 02:00:37;;;;;;;4.63;3.47;;;14.10;99.90;;;;;;5066839;28;20192;-66
2023/10/01 02:03:10;;;;;;;4.50;3.40;;;14.10;99.90;;;;;;5069758;28;20188;-66
2023/10/01 02:05:47;;;;;;;4.88;3.40;;;14.10;99.90;;;;;;5068433;28;20189;-66
2023/10/01 02:08:34;;;;;;;6.78;3.55;;;14.10;99.90;;;;;;5085621;28;20262;-66
2023/10/01 02:11:09;;;;;;;4.93;3.58;;;14.10;99.90;;;;;;5084818;28;20181;-67
2023/10/01 02:13:40;;;;;;;4.82;3.67;;;14.10;99.90;;;;;;5075833;28;20200;-65
2023/10/01 02:19:11;;;;;;;4.75;3.47;;;14.10;99.90;;;;;;5068510;28;20195;-66
2023/10/01 02:21:49;;;;;;;4.53;3.17;;;14.00;99.90;;;;;;5082818;28;20239;-67
2023/10/01 02:24:22;;;;;;;4.90;3.50;;;14.00;99.90;;;;;;5078837;28;20192;-65
2023/10/01 02:26:59;;;;;;;4.93;3.50;;;14.00;99.90;;;;;;5083145;28;20197;-65
2023/10/01 02:29:31;;;;;;;5.38;3.33;;;14.00;99.90;;;;;;5082096;28;20192;-67
2023/10/01 02:31:57;;;;;;;5.03;3.53;;;14.00;99.90;;;;;;5067809;28;20173;-66
2023/10/01 02:34:24;;;;;;;5.18;3.67;;;14.00;99.90;;;;;;5082905;28;20205;-65
2023/10/01 02:36:51;;;;;;;5.78;3.60;;;14.00;99.90;;;;;;5077576;28;20239;-66
2023/10/01 02:39:28;;;;;;;5.82;3.70;;;14.00;99.90;;;;;;5083079;28;20196;-66
2023/10/01 02:44:40;;;;;;;6.28;3.60;;;14.00;99.90;;;;;;5067794;28;20242;-66
2023/10/01 02:47:16;;;;;;;5.65;3.78;;;14.00;99.90;;;;;;5080755;28;20180;-66
2023/10/01 02:49:49;;;;;;;5.32;3.75;;;14.00;99.90;;;;;;5064146;28;20191;-66
2023/10/01 02:52:23;;;;;;;6.15;4.13;;;14.00;99.90;;;;;;5076846;28;20242;-66
2023/10/01 02:54:59;;;;;;;5.05;3.67;;;14.00;99.90;;;;;;5074537;28;20196;-66
2023/10/01 02:57:33;;;;;;;4.75;3.45;;;14.10;99.90;;;;;;5077065;28;20860;-66
2023/10/01 03:02:57;;;;;;;6.07;3.80;;;14.00;99.90;;;;;;5067152;28;20279;-66
2023/10/01 03:05:36;;;;;;;4.75;3.58;;;14.00;99.90;;;;;;5081742;28;20176;-67
2023/10/01 03:08:40;;;;;;;4.43;3.30;;;14.00;99.90;;;;;;5082742;28;20769;-65
2023/10/01 03:10:47;;;;;;;5.28;3.40;;;14.00;99.90;;;;;;5064529;28;20268;-66
2023/10/01 03:13:17;;;;;;;4.50;3.60;;;14.00;99.90;;;;;;5082108;28;20264;-66
2023/10/01 03:15:47;;;;;;;6.45;3.72;;;14.00;99.90;;;;;;5064443;28;20222;-65
2023/10/01 03:26:08;;;;;;;5.75;3.53;;;13.90;99.90;;;;;;5068088;28;20173;-66
2023/10/01 03:31:29;;;;;;;5.38;3.35;;;14.00;99.90;;;;;;5064119;28;20207;-68
2023/10/01 03:33:54;;;;;;;4.20;3.40;;;14.00;99.90;;;;;;5080375;28;20206;-65
2023/10/01 03:36:32;;;;;;;5.03;3.55;;;14.00;99.90;;;;;;5081060;28;20184;-64
2023/10/01 03:39:08;;;;;;;4.85;3.47;;;14.00;99.90;;;;;;5092467;28;20219;-65
2023/10/01 03:41:55;;;;;;;4.28;3.25;;;14.00;99.90;;;;;;5079265;28;20207;-65
2023/10/01 03:47:11;;;;;;;6.45;3.70;;;14.00;99.90;;;;;;5064974;28;20270;-65
2023/10/01 03:49:44;;;;;;;4.32;3.40;;;14.00;99.90;;;;;;5076015;28;20299;-66
2023/10/01 03:52:20;;;;;;;5.35;3.92;;;13.90;99.90;;;;;;5082091;28;20177;-65
2023/10/01 03:57:23;;;;;;;4.85;3.40;;;14.00;99.90;;;;;;5064809;28;20168;-66
2023/10/01 03:59:52;;;;;;;4.72;3.40;;;13.90;99.90;;;;;;5079444;28;20282;-66
2023/10/01 04:02:42;;;;;;;5.55;3.63;;;13.90;99.90;;;;;;5081701;28;20292;-66
2023/10/01 04:05:21;;;;;;;5.68;3.75;;;14.00;99.90;;;;;;5082003;28;20249;-66
2023/10/01 04:07:53;;;;;;;5.18;3.35;;;13.90;99.90;;;;;;5081257;28;20223;-66
2023/10/01 04:12:54;;;;;;;5.82;3.55;;;14.00;99.90;;;;;;5063015;28;20196;-66
2023/10/01 04:15:30;;;;;;;5.07;3.38;;;14.00;99.90;;;;;;5081857;28;20481;-66
2023/10/01 04:20:48;;;;;;;4.32;3.05;;;13.90;99.90;;;;;;5065885;28;20200;-66
2023/10/01 04:23:29;;;;;;;6.13;3.95;;;13.90;99.90;;;;;;5082958;28;20216;-67
2023/10/01 04:26:05;;;;;;;4.85;3.58;;;13.90;99.90;;;;;;5063288;28;20201;-66
2023/10/01 04:28:41;;;;;;;5.80;4.20;;;14.00;99.90;;;;;;5062087;28;20346;-66
2023/10/01 04:31:14;;;;;;;6.07;3.50;;;13.90;99.90;;;;;;5081087;28;20173;-66
2023/10/01 04:33:43;;;;;;;4.95;3.58;;;13.90;99.90;;;;;;5082881;28;20177;-67
2023/10/01 04:36:15;;;;;;;5.57;3.95;;;13.90;99.90;;;;;;5083461;28;20246;-67
2023/10/01 04:38:45;;;;;;;6.78;4.40;;;13.90;99.90;;;;;;5074347;28;20220;-66
2023/10/01 04:41:18;;;;;;;5.97;3.72;;;13.90;99.90;;;;;;5062154;28;20215;-65
2023/10/01 04:44:06;;;;;;;4.72;3.47;;;13.90;99.90;;;;;;5076692;28;20177;-64
2023/10/01 04:46:37;;;;;;;6.32;3.83;;;13.90;99.90;;;;;;5080466;28;20219;-65
2023/10/01 04:49:26;;;;;;;6.72;3.88;;;13.90;99.90;;;;;;5078575;28;20277;-65
2023/10/01 04:51:53;;;;;;;4.57;3.40;;;13.90;99.90;;;;;;5064328;28;20757;-65
2023/10/01 04:54:21;;;;;;;6.45;4.20;;;13.90;99.90;;;;;;5082423;28;20181;-65
2023/10/01 04:56:50;;;;;;;6.15;3.72;;;13.80;99.90;;;;;;5076780;28;20184;-65
2023/10/01 04:59:19;;;;;;;5.47;3.70;;;13.80;99.90;;;;;;5079670;28;21086;-65
2023/10/01 05:01:47;;;;;;;5.10;3.45;;;13.90;99.90;;;;;;5064475;28;20185;-65
2023/10/01 05:04:14;;;;;;;4.43;3.30;;;13.80;99.90;;;;;;5079597;28;20203;-65
2023/10/01 05:06:43;;;;;;;5.35;3.80;;;13.80;99.90;;;;;;5080844;28;20204;-65
2023/10/01 05:09:16;;;;;;;5.70;3.72;;;13.80;99.90;;;;;;5080188;28;20252;-65
2023/10/01 05:11:43;;;;;;;5.35;3.55;;;13.80;99.90;;;;;;5068681;28;20196;-65
2023/10/01 05:14:15;;;;;;;3.92;3.13;;;13.90;99.90;;;;;;5087107;28;20200;-67
2023/10/01 05:16:43;;;;;;;4.15;3.10;;;13.80;99.90;;;;;;5075868;28;20184;-67
2023/10/01 05:19:15;;;;;;;4.88;3.70;;;13.70;99.90;;;;;;5067349;28;20173;-69
2023/10/01 05:21:47;;;;;;;4.28;3.13;;;13.80;99.90;;;;;;5082643;28;20237;-69
2023/10/01 05:24:36;;;;;;;4.55;3.38;;;13.80;99.90;;;;;;5084022;28;20220;-67
2023/10/01 05:27:18;;;;;;;4.22;3.13;;;13.80;99.90;;;;;;5066976;28;20176;-69
2023/10/01 05:29:46;;;;;;;4.25;2.97;;;13.80;99.90;;;;;;5082296;28;20297;-70
2023/10/01 05:32:13;;;;;;;5.30;3.55;;;13.80;99.90;;;;;;5083353;28;20165;-70
2023/10/01 05:34:42;;;;;;;5.55;3.38;;;13.80;99.90;;;;;;5085170;28;20337;-71
2023/10/01 05:37:12;;;;;;;6.05;3.75;;;13.80;99.90;;;;;;5083213;28;20212;-71
2023/10/01 05:39:58;;;;;;;4.75;3.17;;;13.80;99.90;;;;;;5083332;28;20191;-71
2023/10/01 05:42:28;;;;;;;4.18;3.58;;;13.80;99.90;;;;;;5085878;28;20662;-70
2023/10/01 05:45:00;;;;;;;5.07;3.60;;;13.80;99.90;;;;;;5084468;28;20188;-70
2023/10/01 05:47:45;;;;;;;5.25;3.83;;;13.80;99.90;;;;;;5069839;28;20256;-71
2023/10/01 05:50:14;;;;;;;6.20;3.75;;;13.80;99.90;;;;;;5068441;28;20816;-70
2023/10/01 05:52:40;;;;;;;5.40;3.63;;;13.70;99.90;;;;;;5084589;28;20177;-70
2023/10/01 05:55:19;;;;;;;4.45;3.45;;;13.80;99.90;;;;;;5084145;28;20185;-70
2023/10/01 05:57:45;;;;;;;5.72;3.65;;;13.80;99.90;;;;;;5086380;28;20219;-70
2023/10/01 06:00:18;;;;;;;5.97;3.65;;;13.80;99.90;;;;;;5067648;28;20181;-67
2023/10/01 06:03:00;;;;;;;5.32;4.10;;;13.80;99.90;;;;;;5085663;28;20202;-70
2023/10/01 06:05:43;;;;;;;5.28;3.42;;;13.80;99.90;;;;;;5068602;28;20184;-70
2023/10/01 06:08:23;;;;;;;5.55;3.72;;;13.80;99.90;;;;;;5087569;28;20249;-71
2023/10/01 06:13:34;;;;;;;6.82;3.85;;;13.80;99.90;;;;;;5064181;28;20173;-71
2023/10/01 06:16:11;;;;;;;6.15;3.75;;;13.90;99.90;;;;;;5082377;28;20196;-70
2023/10/01 06:18:49;;;;;;;5.22;3.40;;;13.90;99.90;;;;;;5083080;28;20180;-71
2023/10/01 06:21:23;;;;;;;6.00;3.75;;;13.90;99.90;;;;;;5081074;28;20180;-71
2023/10/01 06:23:52;;;;;;;5.72;3.70;;;13.90;99.90;;;;;;5083726;28;20173;-70
2023/10/01 06:26:33;;;;;;;6.70;4.22;;;13.90;99.90;;;;;;5065287;28;20181;-70
2023/10/01 06:29:02;;;;;;;6.20;3.72;;;14.00;99.90;;;;;;5080356;28;20208;-70
2023/10/01 06:31:47;;;;;;;6.05;4.40;;;14.00;99.90;;;;;;5082238;28;20222;-67
2023/10/01 06:34:23;;;;;;;7.07;4.60;;;14.00;99.90;;;;;;5084677;28;20185;-69
2023/10/01 06:37:01;;;;;;;5.90;4.15;;;14.10;99.90;;;;;;5083401;28;20224;-69
2023/10/01 06:39:35;;;;;;;5.40;3.65;;;14.10;99.90;;;;;;5082230;28;20326;-69
2023/10/01 06:42:20;;;;;;;7.50;5.20;;;14.10;99.90;;;;;;5060880;28;20197;-70
2023/10/01 06:44:52;;;;;;;5.28;3.90;;;14.20;99.90;;;;;;5065920;28;20187;-69
2023/10/01 06:47:22;;;;;;;5.28;3.88;;;14.20;99.90;;;;;;5083192;28;20279;-69
2023/10/01 06:50:04;;;;;;;5.90;4.20;;;14.20;99.90;;;;;;5082912;28;21065;-67
2023/10/01 06:52:34;;;;;;;5.35;3.55;;;14.30;99.90;;;;;;5082960;28;20231;-68
2023/10/01 06:55:01;;;;;;;5.07;3.55;;;14.30;99.90;;;;;;5084234;28;20207;-69
2023/10/01 06:57:30;;;;;;;6.63;4.30;;;14.40;99.90;;;;;;5083455;28;20181;-69
2023/10/01 06:59:59;;;;;;;5.68;3.78;;;14.40;99.90;;;;;;5080770;28;20227;-69
2023/10/01 07:02:27;;;;;;;5.15;3.80;;;14.40;99.90;;;;;;5073832;28;20222;-66
2023/10/01 07:04:58;;;;;;;6.32;3.63;;;14.50;99.90;;;;;;5080055;28;20291;-68
2023/10/01 07:07:28;;;;;;;5.30;3.55;;;14.50;99.90;;;;;;5077227;28;20201;-69
2023/10/01 07:09:56;;;;;;;5.90;4.18;;;14.60;99.90;;;;;;5080235;28;20208;-67
2023/10/01 07:12:25;;;;;;;6.35;4.15;;;14.70;99.90;;;;;;5066214;28;20203;-69
2023/10/01 07:14:51;;;;;;;6.43;4.13;;;14.70;99.90;;;;;;5082666;28;20200;-68
2023/10/01 07:17:24;;;;;;;5.90;3.72;;;14.70;99.90;;;;;;5079214;28;20239;-69
2023/10/01 07:19:59;;;;;;;6.20;4.15;;;14.80;99.90;;;;;;5079681;28;20200;-67
2023/10/01 07:22:38;;;;;;;5.38;3.80;;;14.90;99.90;;;;;;5082510;28;20184;-70
2023/10/01 07:25:28;;;;;;;4.90;3.40;;;15.00;99.90;;;;;;5079715;28;20253;-70
2023/10/01 07:27:55;;;;;;;5.13;3.28;;;15.00;99.90;;;;;;5065612;28;20204;-70
2023/10/01 07:30:39;;;;;;;5.28;3.70;;;15.10;99.90;;;;;;5082335;28;20180;-68
2023/10/01 07:33:05;;;;;;;7.13;3.60;;;15.20;99.90;;;;;;5064632;28;20177;-69
2023/10/01 07:35:44;;;;;;;6.03;3.72;;;15.20;99.90;;;;;;5081879;28;20200;-69
2023/10/01 07:38:15;;;;;;;5.18;3.53;;;15.30;99.90;;;;;;5064923;28;20184;-69
2023/10/01 07:40:57;;;;;;;4.97;3.33;;;15.40;99.90;;;;;;5076597;28;20223;-69
2023/10/01 07:43:30;;;;;;;9.43;4.00;;;15.40;99.90;;;;;;5081525;28;20249;-69
2023/10/01 07:45:58;;;;;;;5.40;3.65;;;15.50;99.90;;;;;;5079115;28;20187;-69
2023/10/01 07:48:35;;;;;;;6.25;4.03;;;15.60;99.90;;;;;;5080542;28;20234;-70
2023/10/01 07:51:03;;;;;;;5.82;3.60;;;15.60;99.90;;;;;;5064591;28;20172;-68
2023/10/01 07:53:34;;;;;;;5.30;3.70;;;15.70;99.90;;;;;;5073650;28;20188;-69
2023/10/01 07:56:02;;;;;;;4.32;3.13;;;15.80;99.90;;;;;;5074383;28;20200;-69
2023/10/01 08:03:56;;;;;;;6.05;3.58;;;16.00;99.90;;;;;;5065454;28;20356;-69
2023/10/01 08:06:30;;;;;;;6.00;3.75;;;16.10;99.90;;;;;;5081110;28;20306;-69
2023/10/01 08:09:08;;;;;;;5.50;3.88;;;16.20;99.90;;;;;;5080465;28;20303;-69
2023/10/01 08:14:20;;;;;;;5.85;3.60;;;16.40;99.90;;;;;;5065204;28;20188;-68
2023/10/01 08:16:50;;;;;;;6.10;4.15;;;16.50;99.90;;;;;;5080059;28;20192;-70
2023/10/01 08:19:20;;;;;;;7.07;4.07;;;16.50;99.90;;;;;;5082076;28;20186;-70
2023/10/01 08:21:53;;;;;;;6.25;3.95;;;16.60;99.90;;;;;;5080610;28;20189;-69
2023/10/01 08:24:33;;;;;;;4.82;3.50;;;16.70;99.90;;;;;;5080914;28;20201;-69
2023/10/01 08:27:03;;;;;;;6.38;4.03;;;16.80;99.90;;;;;;5080226;28;20196;-70
2023/10/01 08:32:14;;;;;;;7.55;4.18;;;17.00;99.90;;;;;;5064453;28;20305;-68
2023/10/01 08:37:24;;;;;;;6.38;3.80;;;17.20;99.90;;;;;;5065522;28;20277;-70
2023/10/01 08:39:53;;;;;;;5.35;3.40;;;17.20;99.90;;;;;;5079297;28;20995;-68
2023/10/01 08:42:19;;;;;;;7.32;4.18;;;17.30;99.90;;;;;;5072712;28;20189;-70
2023/10/01 08:44:54;;;;;;;5.88;4.05;;;17.50;99.90;;;;;;5079883;28;20212;-69
2023/10/01 08:47:31;;;;;;;5.18;3.90;;;17.50;99.90;;;;;;5079633;28;20277;-70
2023/10/01 08:52:57;;;;;;;7.10;3.90;;;17.80;99.90;;;;;;5065975;28;20264;-70
2023/10/01 09:00:49;;;;;;;5.95;4.10;;;18.10;99.90;;;;;;5066290;28;20207;-86
2023/10/01 09:03:28;;;;;;;6.38;4.35;;;18.20;99.90;;;;;;5064357;28;20207;-81
2023/10/01 09:06:24;;;;;;;7.82;4.38;;;18.30;99.90;;;;;;5098573;28;20266;-83
2023/10/01 09:08:59;;;;;;;7.43;4.50;;;18.40;99.90;;;;;;5063801;28;20188;-79
2023/10/01 09:11:35;;;;;;;6.00;3.83;;;18.50;99.90;;;;;;5077481;28;20201;-81
2023/10/01 09:14:17;;;;;;;6.55;4.00;;;18.70;99.90;;;;;;5077869;28;20185;-81
2023/10/01 09:16:49;;;;;;;5.38;3.90;;;18.80;99.90;;;;;;5071412;28;20169;-87
2023/10/01 09:19:42;;;;;;;6.60;4.03;;;18.90;99.90;;;;;;5083266;28;20196;-79
2023/10/01 09:22:15;;;;;;;5.97;3.78;;;19.10;99.90;;;;;;5075333;28;20189;-89
2023/10/01 09:25:01;;;;;;;6.22;3.83;;;19.30;99.90;;;;;;5080569;28;20786;-86
2023/10/01 09:27:30;;;;;;;5.25;3.65;;;19.70;99.90;;;;;;5080579;28;20181;-88
2023/10/01 09:30:26;;;;;;;6.25;4.22;;;20.50;99.90;;;;;;5080380;28;20223;-86
2023/10/01 09:32:56;;;;;;;5.93;3.58;;;21.30;99.90;;;;;;5064706;28;20193;-89
2023/10/01 09:36:09;;;;;;;4.32;3.35;;;22.10;99.90;;;;;;5064941;28;20185;-85
2023/10/01 09:38:18;;;;;;;5.18;3.53;;;22.80;99.90;;;;;;5059640;28;20227;-88
2023/10/01 09:40:47;;;;;;;5.30;3.72;;;23.60;99.90;;;;;;5063124;28;20208;-90
2023/10/01 09:43:19;;;;;;;5.38;3.90;;;24.10;99.90;;;;;;5077885;28;20258;-85
2023/10/01 09:45:49;;;;;;;6.32;4.15;;;24.60;99.90;;;;;;5078894;28;20186;-88
2023/10/01 09:48:30;;;;;;;6.85;4.15;;;24.90;99.90;;;;;;5064604;28;20205;-84
2023/10/01 09:51:14;;;;;;;6.35;3.70;;;25.30;99.90;;;;;;5073492;28;20291;-84
2023/10/01 09:54:00;;;;;;;5.70;3.90;;;25.80;99.90;;;;;;5081010;28;20181;-89
2023/10/01 09:56:30;;;;;;;5.07;3.85;;;26.10;99.90;;;;;;5064807;28;20181;-87
2023/10/01 09:59:08;;;;;;;5.75;3.65;;;26.40;99.90;;;;;;5084248;28;20243;-79
2023/10/01 10:01:42;;;;;;;5.43;3.67;;;26.70;99.90;;;;;;5084247;28;20212;-87
2023/10/01 10:04:12;;;;;;;6.28;3.85;;;27.00;99.90;;;;;;5085517;28;20205;-85
2023/10/01 10:06:43;;;;;;;5.57;3.58;;;27.20;99.90;;;;;;5090138;28;20199;-82
2023/10/01 10:09:26;;;;;;;5.13;3.55;;;27.30;99.90;;;;;;5070284;28;20204;-81
2023/10/01 10:11:53;;;;;;;6.00;4.03;;;27.50;99.90;;;;;;5083409;28;20255;-74
2023/10/01 10:14:33;;;;;;;6.75;3.88;;;27.60;99.90;;;;;;5079356;28;20173;-85
2023/10/01 10:17:27;;;;;;;7.07;3.50;;;27.80;99.90;;;;;;5077692;28;20387;-89
2023/10/01 10:20:26;;;;;;;7.25;4.38;;;27.90;99.90;;;;;;5066527;28;20192;-89
2023/10/01 10:23:19;;;;;;;6.85;3.78;;;28.10;99.90;;;;;;5093694;28;20176;-89
2023/10/01 10:25:45;;;;;;;5.03;3.70;;;28.20;99.90;;;;;;5090237;28;20317;-88
2023/10/01 10:28:24;;;;;;;6.32;4.32;;;28.30;99.90;;;;;;5091481;28;20216;-82
2023/10/01 10:31:33;;;;;;;6.30;4.40;;;28.40;99.90;;;;;;5086106;28;20191;-85
2023/10/01 10:34:25;;;;;;;5.70;3.80;;;28.50;99.90;;;;;;5068436;28;20282;-87
2023/10/01 10:36:54;;;;;;;7.32;4.35;;;28.50;99.90;;;;;;5084329;28;20170;-79
2023/10/01 10:43:04;;;;;;;7.97;4.45;;;28.60;99.90;;;;;;5047137;28;20281;-87
2023/10/01 10:45:42;;;;;;;9.02;6.00;;;28.60;99.90;;;;;;5044853;28;20200;-83
2023/10/01 10:48:21;;;;;;;7.32;4.70;;;28.60;99.90;;;;;;5075283;28;20200;-81
2023/10/01 10:50:56;;;;;;;7.28;4.78;;;28.60;99.90;;;;;;5082962;28;20176;-87
2023/10/01 10:53:40;;;;;;;5.75;4.10;;;28.70;99.90;;;;;;5085532;28;20202;-86
2023/10/01 10:56:15;;;;;;;9.35;4.50;;;28.80;99.90;;;;;;5084083;28;20209;-90
2023/10/01 10:58:53;;;;;;;6.32;4.35;;;28.80;99.90;;;;;;5086261;28;20217;-87
2023/10/01 11:01:19;;;;;;;7.15;4.90;;;28.80;99.90;;;;;;5085559;28;21164;-84
2023/10/01 11:03:56;;;;;;;7.40;4.85;;;28.80;99.90;;;;;;5084522;28;20184;-83
2023/10/01 11:06:29;;;;;;;6.20;4.35;;;28.80;99.90;;;;;;5079650;28;20188;-84
2023/10/01 11:08:56;;;;;;;8.98;5.50;;;28.80;99.90;;;;;;5084862;28;20453;-84
2023/10/01 11:11:30;;;;;;;8.52;4.93;;;28.80;99.90;;;;;;5084655;28;20215;-87
2023/10/01 11:14:11;;;;;;;12.50;7.65;;;28.70;99.90;;;;;;5083408;28;20178;-81
2023/10/01 11:16:40;;;;;;;9.38;5.65;;;28.50;99.90;;;;;;5086327;28;20195;-89
2023/10/01 11:19:16;;;;;;;9.10;5.78;;;28.40;99.90;;;;;;5085411;28;20200;-82
2023/10/01 11:21:59;;;;;;;8.82;6.03;;;28.30;99.90;;;;;;5087670;28;20184;-86
2023/10/01 11:24:35;;;;;;;8.73;5.65;;;28.30;99.90;;;;;;5065451;28;20181;-88
2023/10/01 11:27:14;;;;;;;7.78;5.28;;;28.20;99.90;;;;;;5087254;28;20219;-89
2023/10/01 11:29:59;;;;;;;7.70;5.43;;;28.10;99.90;;;;;;5070085;28;20203;-87
2023/10/01 11:38:34;;;;;;;7.43;5.40;;;28.00;99.90;;;;;;5067620;28;20246;-82
2023/10/01 11:41:08;;;;;;;7.53;5.00;;;28.00;99.90;;;;;;5084522;28;20215;-80
2023/10/01 11:43:42;;;;;;;8.02;4.93;;;28.00;99.90;;;;;;5084173;28;20177;-85
2023/10/01 11:46:29;;;;;;;7.50;5.10;;;28.00;99.90;;;;;;5085760;28;20180;-84
2023/10/01 11:49:10;;;;;;;7.45;4.85;;;28.10;99.90;;;;;;5067150;28;20223;-88
2023/10/01 11:51:54;;;;;;;9.55;5.30;;;28.00;99.90;;;;;;5083729;28;20200;-81
2023/10/01 11:54:43;;;;;;;7.95;5.00;;;28.00;99.90;;;;;;5072956;28;20184;-90
2023/10/01 11:57:22;;;;;;;7.93;5.05;;;28.10;99.90;;;;;;5068338;28;20257;-81
2023/10/01 12:00:01;;;;;;;6.82;4.57;;;28.10;99.90;;;;;;5080058;28;20192;-81
2023/10/01 12:02:43;;;;;;;8.90;4.82;;;28.20;99.90;;;;;;5075621;28;20211;-87
2023/10/01 12:05:13;;;;;;;8.20;5.20;;;28.20;99.90;;;;;;5084895;28;20212;-84
2023/10/01 12:07:45;;;;;;;9.77;5.50;;;28.30;99.90;;;;;;5078014;28;20200;-87
2023/10/01 12:10:32;;;;;;;8.38;4.90;;;28.30;99.90;;;;;;5084708;28;20178;-92
2023/10/01 12:13:06;;;;;;;7.13;4.50;;;28.40;99.90;;;;;;5085995;28;20193;-93
2023/10/01 12:15:35;;;;;;;8.18;4.97;;;28.40;99.90;;;;;;5085743;28;20168;-89
2023/10/01 12:18:14;;;;;;;7.70;5.28;;;28.50;99.90;;;;;;5077381;28;20200;-85
2023/10/01 12:20:47;;;;;;;7.50;4.97;;;28.60;99.90;;;;;;5081921;28;20180;-92
2023/10/01 12:23:21;;;;;;;7.78;5.07;;;28.60;99.90;;;;;;5063325;28;20192;-78
2023/10/01 12:25:50;;;;;;;9.80;5.38;;;28.70;99.90;;;;;;5082440;28;20264;-88
2023/10/01 12:28:36;;;;;;;8.40;5.05;;;28.80;99.90;;;;;;5084299;28;20210;-84
2023/10/01 12:31:08;;;;;;;7.65;5.28;;;28.90;99.90;;;;;;5076270;28;20180;-83
2023/10/01 12:33:43;;;;;;;7.63;4.97;;;29.00;99.90;;;;;;5084993;28;20188;-82
2023/10/01 12:36:32;;;;;;;7.53;5.00;;;29.10;99.90;;;;;;5084204;28;20179;-85
2023/10/01 12:44:25;;;;;;;7.18;4.90;;;29.20;99.90;;;;;;5080019;28;20247;-67
2023/10/01 12:46:54;;;;;;;8.10;5.63;;;29.20;99.90;;;;;;5091247;28;20200;-68
2023/10/01 12:49:21;;;;;;;8.10;5.43;;;29.30;99.90;;;;;;5100039;28;20273;-82
2023/10/01 12:51:53;;;;;;;8.85;5.32;;;29.20;99.90;;;;;;5085109;28;20192;-84
2023/10/01 12:54:25;;;;;;;9.38;5.53;;;29.20;99.90;;;;;;5072667;28;20195;-80
2023/10/01 12:57:05;;;;;;;7.00;4.95;;;29.30;99.90;;;;;;5065574;28;20178;-83
2023/10/01 12:59:43;;;;;;;7.32;4.97;;;29.30;99.90;;;;;;5077517;28;20253;-88
2023/10/01 13:05:16;;;;;;;8.00;4.95;;;29.50;99.90;;;;;;5061525;28;20188;-84
2023/10/01 13:07:52;;;;;;;7.30;4.95;;;29.50;99.90;;;;;;5083740;28;20182;-86
2023/10/01 13:10:18;;;;;;;10.25;4.93;;;29.60;99.90;;;;;;5065992;28;20184;-81
2023/10/01 13:12:57;;;;;;;7.28;4.88;;;29.70;99.90;;;;;;5074069;28;20212;-81
2023/10/01 13:15:33;;;;;;;6.90;4.78;;;29.70;99.90;;;;;;5066669;28;20206;-87
2023/10/01 13:18:01;;;;;;;7.22;4.90;;;29.80;99.90;;;;;;5085707;28;20176;-81
2023/10/01 13:20:48;;;;;;;7.75;4.97;;;29.80;99.90;;;;;;5083751;28;20207;-88
2023/10/01 13:23:13;;;;;;;7.65;4.90;;;29.90;99.90;;;;;;5066448;28;20473;-63
2023/10/01 13:25:46;;;;;;;8.35;5.40;;;29.90;99.90;;;;;;5080669;28;20227;-66
2023/10/01 13:28:19;;;;;;;7.65;4.90;;;29.90;99.90;;;;;;5074857;28;20208;-64
2023/10/01 13:33:53;;;;;;;7.72;5.05;;;30.00;99.90;;;;;;5070381;28;20343;-64
2023/10/01 13:36:23;;;;;;;7.60;5.22;;;30.00;99.90;;;;;;5068388;28;20180;-64
2023/10/01 13:39:13;;;;;;;7.30;4.93;;;30.00;99.90;;;;;;5088819;28;20198;-64
2023/10/01 14:09:09;;;;;;;7.60;5.43;;;30.00;99.90;;;;;;5030355;28;20299;-64
2023/10/01 14:11:40;;;;;;;8.45;5.43;;;30.00;99.90;;;;;;5086880;28;20169;-65
2023/10/01 14:14:16;;;;;;;7.65;5.15;;;30.10;99.90;;;;;;5083901;28;20213;-64
2023/10/01 14:16:47;;;;;;;9.25;5.63;;;30.10;99.90;;;;;;5064078;28;20230;-64
2023/10/01 14:19:17;;;;;;;8.57;5.50;;;30.10;99.90;;;;;;5065072;28;20188;-65
2023/10/01 14:21:42;;;;;;;8.48;5.80;;;30.20;99.90;;;;;;5085563;28;20313;-65
2023/10/01 14:24:24;;;;;;;8.80;5.78;;;30.20;99.90;;;;;;5074375;28;20256;-64
2023/10/01 14:26:51;;;;;;;8.70;5.40;;;30.20;99.90;;;;;;5083444;28;20200;-65
2023/10/01 14:29:22;;;;;;;7.80;5.30;;;30.20;99.90;;;;;;5067838;28;20192;-65
2023/10/01 14:31:54;;;;;;;8.10;5.30;;;30.20;99.90;;;;;;5082492;28;20183;-65
2023/10/01 14:34:23;;;;;;;7.50;5.15;;;30.10;99.90;;;;;;5065289;28;20183;-64
2023/10/01 14:36:58;;;;;;;11.75;5.80;;;30.10;99.90;;;;;;5071819;28;20172;-65
2023/10/01 14:39:32;;;;;;;7.05;4.72;;;30.10;99.90;;;;;;5086411;28;20183;-65
2023/10/01 14:41:58;;;;;;;6.53;4.55;;;30.10;99.90;;;;;;5084901;28;20301;-65
2023/10/01 14:44:27;;;;;;;8.32;5.35;;;30.10;99.90;;;;;;5072654;28;20189;-64
2023/10/01 14:46:54;;;;;;;8.30;5.40;;;30.10;99.90;;;;;;5084870;28;20186;-65
2023/10/01 14:49:23;;;;;;;8.75;5.63;;;30.10;99.90;;;;;;5082666;28;20216;-66
2023/10/01 14:51:49;;;;;;;9.02;5.85;;;30.10;99.90;;;;;;5082325;28;20237;-64
2023/10/01 14:54:18;;;;;;;9.40;5.78;;;30.10;99.90;;;;;;5086614;28;20180;-65
2023/10/01 14:56:54;;;;;;;8.60;5.80;;;30.10;99.90;;;;;;5066981;28;20177;-65
2023/10/01 14:59:21;;;;;;;8.98;5.35;;;30.10;99.90;;;;;;5081742;28;20237;-65
2023/10/01 15:01:50;;;;;;;8.77;6.22;;;30.10;99.90;;;;;;5081128;28;20235;-65
2023/10/01 15:04:23;;;;;;;10.10;6.18;;;30.00;99.90;;;;;;5077206;28;20177;-63
2023/10/01 15:06:57;;;;;;;8.45;5.65;;;30.00;99.90;;;;;;5073424;28;20192;-63